sensor_id;sensor_type;location;lat;lon;timestamp;pressure;altitude;pressure_sealevel;temperature;humidity
60654;BME280;46476;53.614;10.048;2022-09-06T00:00:51;101870.03;;;20.85;42.93
60654;BME280;46476;53.614;10.048;2022-09-06T00:03:16;101875.75;;;20.84;42.65
60654;BME280;46476;53.614;10.048;2022-09-06T00:05:42;101860.75;;;20.86;42.83
60654;BME280;46476;53.614;10.048;2022-09-06T00:08:09;101863.88;;;20.83;42.81
60654;BME280;46476;53.614;10.048;2022-09-06T00:10:34;101864.06;;;20.82;43.01
60654;BME280;46476;53.614;10.048;2022-09-06T00:13:01;101867.00;;;20.80;43.03
60654;BME280;46476;53.614;10.048;2022-09-06T00:15:27;101862.28;;;20.74;42.83
60654;BME280;46476;53.614;10.048;2022-09-06T00:17:52;101855.94;;;20.73;42.96
60654;BME280;46476;53.614;10.048;2022-09-06T00:20:18;101855.94;;;20.73;43.01
60654;BME280;46476;53.614;10.048;2022-09-06T00:22:43;101851.94;;;20.76;42.82
60654;BME280;46476;53.614;10.048;2022-09-06T00:25:09;101843.69;;;20.76;42.69
60654;BME280;46476;53.614;10.048;2022-09-06T00:27:34;101857.25;;;20.77;42.74
60654;BME280;46476;53.614;10.048;2022-09-06T00:29:59;101852.56;;;20.78;42.79
60654;BME280;46476;53.614;10.048;2022-09-06T00:32:25;101848.50;;;20.74;42.92
60654;BME280;46476;53.614;10.048;2022-09-06T00:34:51;101847.19;;;20.70;42.80
60654;BME280;46476;53.614;10.048;2022-09-06T00:37:16;101844.44;;;20.70;42.72
60654;BME280;46476;53.614;10.048;2022-09-06T00:39:41;101849.44;;;20.66;42.94
60654;BME280;46476;53.614;10.048;2022-09-06T00:42:11;101850.78;;;20.70;42.37
60654;BME280;46476;53.614;10.048;2022-09-06T00:44:38;101847.47;;;20.75;42.55
60654;BME280;46476;53.614;10.048;2022-09-06T00:47:05;101846.03;;;20.79;42.66
60654;BME280;46476;53.614;10.048;2022-09-06T00:49:34;101846.44;;;20.76;42.32
60654;BME280;46476;53.614;10.048;2022-09-06T00:52:08;101850.78;;;20.70;42.52
60654;BME280;46476;53.614;10.048;2022-09-06T00:54:34;101849.84;;;20.63;42.76
60654;BME280;46476;53.614;10.048;2022-09-06T00:57:00;101850.69;;;20.64;42.77
60654;BME280;46476;53.614;10.048;2022-09-06T00:59:29;101838.81;;;20.63;42.62
60654;BME280;46476;53.614;10.048;2022-09-06T01:01:55;101837.78;;;20.64;42.68
60654;BME280;46476;53.614;10.048;2022-09-06T01:04:21;101834.56;;;20.60;42.60
60654;BME280;46476;53.614;10.048;2022-09-06T01:06:59;101833.31;;;20.63;42.60
60654;BME280;46476;53.614;10.048;2022-09-06T01:15:38;101833.31;;;20.63;42.36
60654;BME280;46476;53.614;10.048;2022-09-06T01:18:28;101835.59;;;20.59;42.42
60654;BME280;46476;53.614;10.048;2022-09-06T01:24:06;101831.81;;;20.60;42.29
60654;BME280;46476;53.614;10.048;2022-09-06T01:29:35;101829.63;;;20.56;42.42
60654;BME280;46476;53.614;10.048;2022-09-06T01:32:16;101840.81;;;20.54;42.39
60654;BME280;46476;53.614;10.048;2022-09-06T01:34:49;101831.88;;;20.52;42.41
60654;BME280;46476;53.614;10.048;2022-09-06T01:37:17;101825.16;;;20.55;42.32
60654;BME280;46476;53.614;10.048;2022-09-06T01:39:44;101826.66;;;20.57;42.27
60654;BME280;46476;53.614;10.048;2022-09-06T01:42:21;101829.81;;;20.54;42.10
60654;BME280;46476;53.614;10.048;2022-09-06T01:44:53;101827.63;;;20.50;42.25
60654;BME280;46476;53.614;10.048;2022-09-06T01:50:21;101830.56;;;20.48;42.02
60654;BME280;46476;53.614;10.048;2022-09-06T01:55:47;101831.34;;;20.42;42.23
60654;BME280;46476;53.614;10.048;2022-09-06T01:58:37;101829.94;;;20.46;42.04
60654;BME280;46476;53.614;10.048;2022-09-06T02:06:28;101819.09;;;20.44;41.90
60654;BME280;46476;53.614;10.048;2022-09-06T02:09:07;101827.19;;;20.46;41.66
60654;BME280;46476;53.614;10.048;2022-09-06T02:11:39;101826.50;;;20.44;41.66
60654;BME280;46476;53.614;10.048;2022-09-06T02:14:10;101822.22;;;20.41;41.50
60654;BME280;46476;53.614;10.048;2022-09-06T02:16:40;101826.91;;;20.41;41.66
60654;BME280;46476;53.614;10.048;2022-09-06T02:19:15;101816.06;;;20.39;41.25
60654;BME280;46476;53.614;10.048;2022-09-06T02:21:43;101820.53;;;20.40;41.22
60654;BME280;46476;53.614;10.048;2022-09-06T02:24:14;101812.75;;;20.44;41.01
60654;BME280;46476;53.614;10.048;2022-09-06T02:26:42;101809.25;;;20.35;41.29
60654;BME280;46476;53.614;10.048;2022-09-06T02:29:10;101811.63;;;20.38;40.97
60654;BME280;46476;53.614;10.048;2022-09-06T02:31:41;101809.91;;;20.37;41.16
60654;BME280;46476;53.614;10.048;2022-09-06T02:34:07;101811.16;;;20.35;41.02
60654;BME280;46476;53.614;10.048;2022-09-06T02:36:36;101810.59;;;20.24;40.83
60654;BME280;46476;53.614;10.048;2022-09-06T02:39:01;101810.09;;;20.21;40.85
60654;BME280;46476;53.614;10.048;2022-09-06T02:41:28;101814.75;;;20.20;40.82
60654;BME280;46476;53.614;10.048;2022-09-06T02:43:55;101812.56;;;20.16;40.85
60654;BME280;46476;53.614;10.048;2022-09-06T02:46:20;101809.25;;;20.20;40.64
60654;BME280;46476;53.614;10.048;2022-09-06T02:48:47;101802.72;;;20.21;40.65
60654;BME280;46476;53.614;10.048;2022-09-06T02:51:12;101795.50;;;20.20;40.47
60654;BME280;46476;53.614;10.048;2022-09-06T02:53:38;101793.59;;;20.21;40.08
60654;BME280;46476;53.614;10.048;2022-09-06T02:56:03;101790.66;;;20.22;40.30
60654;BME280;46476;53.614;10.048;2022-09-06T02:58:29;101789.13;;;20.20;40.41
60654;BME280;46476;53.614;10.048;2022-09-06T03:00:54;101791.53;;;20.23;40.42
60654;BME280;46476;53.614;10.048;2022-09-06T03:03:20;101785.34;;;20.21;40.17
60654;BME280;46476;53.614;10.048;2022-09-06T03:05:50;101793.41;;;20.22;39.98
60654;BME280;46476;53.614;10.048;2022-09-06T03:08:16;101790.28;;;20.25;40.15
60654;BME280;46476;53.614;10.048;2022-09-06T03:10:49;101786.69;;;20.25;39.81
60654;BME280;46476;53.614;10.048;2022-09-06T03:13:15;101784.13;;;20.23;39.88
60654;BME280;46476;53.614;10.048;2022-09-06T03:15:40;101784.31;;;20.22;39.96
60654;BME280;46476;53.614;10.048;2022-09-06T03:18:06;101780.91;;;20.20;39.91
60654;BME280;46476;53.614;10.048;2022-09-06T03:20:31;101776.25;;;20.20;39.68
60654;BME280;46476;53.614;10.048;2022-09-06T03:22:56;101775.22;;;20.21;39.73
60654;BME280;46476;53.614;10.048;2022-09-06T03:25:22;101775.88;;;20.23;39.64
60654;BME280;46476;53.614;10.048;2022-09-06T03:27:47;101774.44;;;20.27;39.43
60654;BME280;46476;53.614;10.048;2022-09-06T03:30:13;101765.91;;;20.22;39.77
60654;BME280;46476;53.614;10.048;2022-09-06T03:32:38;101758.34;;;20.24;39.42
60654;BME280;46476;53.614;10.048;2022-09-06T03:35:03;101760.69;;;20.27;39.08
60654;BME280;46476;53.614;10.048;2022-09-06T03:37:29;101760.69;;;20.27;39.22
60654;BME280;46476;53.614;10.048;2022-09-06T03:39:54;101770.16;;;20.25;39.10
60654;BME280;46476;53.614;10.048;2022-09-06T03:42:20;101765.34;;;20.27;39.26
60654;BME280;46476;53.614;10.048;2022-09-06T03:44:46;101756.63;;;20.23;39.03
60654;BME280;46476;53.614;10.048;2022-09-06T03:47:11;101770.97;;;20.19;39.14
60654;BME280;46476;53.614;10.048;2022-09-06T03:49:36;101772.00;;;20.18;39.05
60654;BME280;46476;53.614;10.048;2022-09-06T03:52:02;101761.84;;;20.18;38.78
60654;BME280;46476;53.614;10.048;2022-09-06T03:54:27;101772.84;;;20.18;38.75
60654;BME280;46476;53.614;10.048;2022-09-06T03:56:54;101773.88;;;20.17;38.58
60654;BME280;46476;53.614;10.048;2022-09-06T03:59:19;101776.25;;;20.20;38.49
60654;BME280;46476;53.614;10.048;2022-09-06T04:01:45;101779.38;;;20.17;38.37
60654;BME280;46476;53.614;10.048;2022-09-06T04:04:10;101775.78;;;20.17;38.53
60654;BME280;46476;53.614;10.048;2022-09-06T04:06:35;101776.91;;;20.22;38.29
60654;BME280;46476;53.614;10.048;2022-09-06T04:09:01;101774.63;;;20.26;37.62
60654;BME280;46476;53.614;10.048;2022-09-06T04:11:26;101769.53;;;20.23;37.88
60654;BME280;46476;53.614;10.048;2022-09-06T04:13:51;101776.06;;;20.22;38.07
60654;BME280;46476;53.614;10.048;2022-09-06T04:16:16;101764.38;;;20.20;37.86
60654;BME280;46476;53.614;10.048;2022-09-06T04:18:42;101771.13;;;20.17;37.94
60654;BME280;46476;53.614;10.048;2022-09-06T04:21:08;101767.94;;;20.14;38.05
60654;BME280;46476;53.614;10.048;2022-09-06T04:23:33;101764.09;;;20.15;37.89
60654;BME280;46476;53.614;10.048;2022-09-06T04:25:58;101767.94;;;20.14;38.16
60654;BME280;46476;53.614;10.048;2022-09-06T04:28:24;101770.69;;;20.14;38.64
60654;BME280;46476;53.614;10.048;2022-09-06T04:30:59;101775.22;;;20.21;38.30
60654;BME280;46476;53.614;10.048;2022-09-06T04:33:25;101771.03;;;20.25;39.00
60654;BME280;46476;53.614;10.048;2022-09-06T04:35:52;101779.38;;;20.32;39.69
60654;BME280;46476;53.614;10.048;2022-09-06T04:38:18;101767.31;;;20.48;39.34
60654;BME280;46476;53.614;10.048;2022-09-06T04:40:43;101770.59;;;20.58;41.23
60654;BME280;46476;53.614;10.048;2022-09-06T04:43:08;101759.59;;;20.73;41.70
60654;BME280;46476;53.614;10.048;2022-09-06T04:45:34;101760.78;;;20.86;39.53
60654;BME280;46476;53.614;10.048;2022-09-06T04:47:59;101760.84;;;20.92;38.79
60654;BME280;46476;53.614;10.048;2022-09-06T04:50:24;101758.19;;;20.99;38.21
60654;BME280;46476;53.614;10.048;2022-09-06T04:52:49;101761.78;;;21.00;39.43
60654;BME280;46476;53.614;10.048;2022-09-06T04:55:15;101748.28;;;21.05;37.98
60654;BME280;46476;53.614;10.048;2022-09-06T04:57:40;101757.19;;;21.07;38.15
60654;BME280;46476;53.614;10.048;2022-09-06T05:00:06;101746.19;;;21.07;37.23
60654;BME280;46476;53.614;10.048;2022-09-06T05:02:32;101758.34;;;20.98;37.04
60654;BME280;46476;53.614;10.048;2022-09-06T05:04:57;101750.53;;;20.80;36.63
60654;BME280;46476;53.614;10.048;2022-09-06T05:07:22;101750.88;;;20.70;36.85
60654;BME280;46476;53.614;10.048;2022-09-06T05:09:47;101749.91;;;20.63;36.96
60654;BME280;46476;53.614;10.048;2022-09-06T05:12:13;101750.28;;;20.59;36.88
60654;BME280;46476;53.614;10.048;2022-09-06T05:14:38;101754.28;;;20.57;36.67
60654;BME280;46476;53.614;10.048;2022-09-06T05:17:03;101753.19;;;20.51;36.81
60654;BME280;46476;53.614;10.048;2022-09-06T05:19:29;101759.03;;;20.48;36.82
60654;BME280;46476;53.614;10.048;2022-09-06T05:24:19;101768.06;;;20.42;36.90
60654;BME280;46476;53.614;10.048;2022-09-06T05:26:44;101765.03;;;20.37;36.71
60654;BME280;46476;53.614;10.048;2022-09-06T05:29:10;101770.25;;;20.32;36.95
60654;BME280;46476;53.614;10.048;2022-09-06T05:31:35;101774.84;;;20.24;36.96
60654;BME280;46476;53.614;10.048;2022-09-06T05:34:01;101774.44;;;20.27;37.04
60654;BME280;46476;53.614;10.048;2022-09-06T05:36:27;101776.53;;;20.25;36.99
60654;BME280;46476;53.614;10.048;2022-09-06T05:38:54;101763.28;;;20.29;36.91
60654;BME280;46476;53.614;10.048;2022-09-06T05:41:21;101760.31;;;20.31;36.73
60654;BME280;46476;53.614;10.048;2022-09-06T05:43:47;101769.88;;;20.35;37.90
60654;BME280;46476;53.614;10.048;2022-09-06T05:46:13;101763.63;;;20.41;38.32
60654;BME280;46476;53.614;10.048;2022-09-06T05:48:39;101773.47;;;20.50;38.39
60654;BME280;46476;53.614;10.048;2022-09-06T05:51:32;101776.56;;;20.62;38.14
60654;BME280;46476;53.614;10.048;2022-09-06T05:53:57;101772.88;;;20.70;38.37
60654;BME280;46476;53.614;10.048;2022-09-06T05:56:22;101765.28;;;20.72;37.58
60654;BME280;46476;53.614;10.048;2022-09-06T05:58:48;101765.84;;;20.67;37.70
60654;BME280;46476;53.614;10.048;2022-09-06T06:01:25;101766.88;;;20.66;37.80
60654;BME280;46476;53.614;10.048;2022-09-06T06:03:56;101767.75;;;20.67;37.91
60654;BME280;46476;53.614;10.048;2022-09-06T06:06:22;101757.59;;;20.67;37.67
60654;BME280;46476;53.614;10.048;2022-09-06T06:08:48;101767.38;;;20.70;37.68
60654;BME280;46476;53.614;10.048;2022-09-06T06:11:15;101768.59;;;20.67;37.43
60654;BME280;46476;53.614;10.048;2022-09-06T06:13:41;101774.66;;;20.63;37.40
60654;BME280;46476;53.614;10.048;2022-09-06T06:16:12;101776.78;;;20.60;37.37
60654;BME280;46476;53.614;10.048;2022-09-06T06:18:38;101771.00;;;20.55;37.97
60654;BME280;46476;53.614;10.048;2022-09-06T06:21:11;101773.41;;;20.65;38.02
60654;BME280;46476;53.614;10.048;2022-09-06T06:23:37;101769.94;;;20.71;37.76
60654;BME280;46476;53.614;10.048;2022-09-06T06:26:04;101762.47;;;20.87;37.55
60654;BME280;46476;53.614;10.048;2022-09-06T06:28:29;101762.28;;;20.88;37.75
60654;BME280;46476;53.614;10.048;2022-09-06T06:30:55;101760.72;;;20.79;36.87
60654;BME280;46476;53.614;10.048;2022-09-06T06:33:20;101756.91;;;20.65;36.32
60654;BME280;46476;53.614;10.048;2022-09-06T06:35:58;101767.00;;;20.58;36.99
60654;BME280;46476;53.614;10.048;2022-09-06T06:38:29;101761.22;;;20.53;37.17
60654;BME280;46476;53.614;10.048;2022-09-06T06:40:54;101753.19;;;20.51;37.53
60654;BME280;46476;53.614;10.048;2022-09-06T06:43:20;101753.25;;;20.58;37.69
60654;BME280;46476;53.614;10.048;2022-09-06T06:45:48;101756.47;;;20.61;38.02
60654;BME280;46476;53.614;10.048;2022-09-06T06:48:14;101756.00;;;20.58;37.47
60654;BME280;46476;53.614;10.048;2022-09-06T06:50:40;101749.00;;;20.55;37.13
60654;BME280;46476;53.614;10.048;2022-09-06T06:53:05;101748.78;;;20.57;37.93
60654;BME280;46476;53.614;10.048;2022-09-06T06:55:30;101745.47;;;20.61;37.84
60654;BME280;46476;53.614;10.048;2022-09-06T06:57:58;101740.13;;;20.60;37.48
60654;BME280;46476;53.614;10.048;2022-09-06T07:00:24;101739.50;;;20.58;37.56
60654;BME280;46476;53.614;10.048;2022-09-06T07:02:49;101738.63;;;20.57;37.71
60654;BME280;46476;53.614;10.048;2022-09-06T07:05:15;101743.97;;;20.59;37.59
60654;BME280;46476;53.614;10.048;2022-09-06T07:07:40;101749.72;;;20.64;37.87
60654;BME280;46476;53.614;10.048;2022-09-06T07:10:05;101739.38;;;20.66;37.55
60654;BME280;46476;53.614;10.048;2022-09-06T07:12:31;101749.53;;;20.66;37.52
60654;BME280;46476;53.614;10.048;2022-09-06T07:14:56;101739.69;;;20.56;37.38
60654;BME280;46476;53.614;10.048;2022-09-06T07:17:21;101733.66;;;20.46;37.70
60654;BME280;46476;53.614;10.048;2022-09-06T07:19:47;101734.69;;;20.45;38.01
60654;BME280;46476;53.614;10.048;2022-09-06T07:22:12;101739.22;;;20.53;37.99
60654;BME280;46476;53.614;10.048;2022-09-06T07:24:37;101743.09;;;20.58;38.00
60654;BME280;46476;53.614;10.048;2022-09-06T07:27:03;101751.13;;;20.60;37.58
60654;BME280;46476;53.614;10.048;2022-09-06T07:29:28;101756.06;;;20.65;38.09
60654;BME280;46476;53.614;10.048;2022-09-06T07:31:54;101744.88;;;20.66;37.82
60654;BME280;46476;53.614;10.048;2022-09-06T07:34:21;101753.91;;;20.75;38.33
60654;BME280;46476;53.614;10.048;2022-09-06T07:36:51;101750.16;;;20.83;37.86
60654;BME280;46476;53.614;10.048;2022-09-06T07:39:17;101750.63;;;20.86;37.65
60654;BME280;46476;53.614;10.048;2022-09-06T07:41:42;101750.03;;;20.91;38.02
60654;BME280;46476;53.614;10.048;2022-09-06T07:44:08;101755.75;;;20.89;37.77
60654;BME280;46476;53.614;10.048;2022-09-06T07:46:33;101754.50;;;20.92;37.93
60654;BME280;46476;53.614;10.048;2022-09-06T07:48:58;101753.66;;;20.91;38.07
60654;BME280;46476;53.614;10.048;2022-09-06T07:51:24;101751.06;;;20.90;37.81
60654;BME280;46476;53.614;10.048;2022-09-06T07:53:51;101749.38;;;20.89;38.35
60654;BME280;46476;53.614;10.048;2022-09-06T07:56:18;101743.88;;;20.89;38.30
60654;BME280;46476;53.614;10.048;2022-09-06T07:58:46;101750.91;;;20.91;38.21
60654;BME280;46476;53.614;10.048;2022-09-06T08:01:25;101747.75;;;20.94;38.50
60654;BME280;46476;53.614;10.048;2022-09-06T08:03:52;101758.34;;;20.98;38.12
60654;BME280;46476;53.614;10.048;2022-09-06T08:06:18;101755.22;;;21.01;38.25
60654;BME280;46476;53.614;10.048;2022-09-06T08:08:43;101749.72;;;21.01;38.35
60654;BME280;46476;53.614;10.048;2022-09-06T08:11:08;101745.00;;;20.94;38.32
60654;BME280;46476;53.614;10.048;2022-09-06T08:13:34;101756.41;;;20.91;38.18
60654;BME280;46476;53.614;10.048;2022-09-06T08:16:04;101748.91;;;20.85;38.73
60654;BME280;46476;53.614;10.048;2022-09-06T08:18:30;101749.38;;;20.89;38.86
60654;BME280;46476;53.614;10.048;2022-09-06T08:20:55;101763.22;;;20.96;38.59
60654;BME280;46476;53.614;10.048;2022-09-06T08:23:21;101763.78;;;20.91;38.62
60654;BME280;46476;53.614;10.048;2022-09-06T08:25:56;101761.25;;;20.89;38.84
60654;BME280;46476;53.614;10.048;2022-09-06T08:28:22;101755.75;;;20.89;38.90
60654;BME280;46476;53.614;10.048;2022-09-06T08:30:47;101757.81;;;20.87;38.82
60654;BME280;46476;53.614;10.048;2022-09-06T08:33:12;101755.28;;;20.86;38.51
60654;BME280;46476;53.614;10.048;2022-09-06T08:35:39;101763.25;;;20.81;38.80
60654;BME280;46476;53.614;10.048;2022-09-06T08:38:05;101763.19;;;20.74;38.77
60654;BME280;46476;53.614;10.048;2022-09-06T08:40:30;101761.97;;;20.61;39.11
60654;BME280;46476;53.614;10.048;2022-09-06T08:42:56;101764.72;;;20.61;39.38
60654;BME280;46476;53.614;10.048;2022-09-06T08:45:22;101767.00;;;20.58;39.25
60654;BME280;46476;53.614;10.048;2022-09-06T08:47:49;101773.56;;;20.57;39.20
60654;BME280;46476;53.614;10.048;2022-09-06T08:50:16;101767.22;;;20.56;39.38
60654;BME280;46476;53.614;10.048;2022-09-06T08:53:01;101763.38;;;20.57;39.63
60654;BME280;46476;53.614;10.048;2022-09-06T08:55:50;101765.09;;;20.58;39.47
60654;BME280;46476;53.614;10.048;2022-09-06T09:01:18;101758.34;;;20.61;39.66
60654;BME280;46476;53.614;10.048;2022-09-06T09:03:47;101759.22;;;20.61;39.69
60654;BME280;46476;53.614;10.048;2022-09-06T09:06:12;101758.56;;;20.59;39.89
60654;BME280;46476;53.614;10.048;2022-09-06T09:11:20;101748.31;;;20.53;39.95
60654;BME280;46476;53.614;10.048;2022-09-06T09:16:13;101740.81;;;20.47;40.20
60654;BME280;46476;53.614;10.048;2022-09-06T09:18:41;101741.31;;;20.51;40.33
60654;BME280;46476;53.614;10.048;2022-09-06T09:21:08;101730.56;;;20.56;40.48
60654;BME280;46476;53.614;10.048;2022-09-06T09:23:34;101736.13;;;20.63;40.39
60654;BME280;46476;53.614;10.048;2022-09-06T09:26:03;101740.22;;;20.67;40.53
60654;BME280;46476;53.614;10.048;2022-09-06T09:28:30;101726.56;;;20.73;40.55
60654;BME280;46476;53.614;10.048;2022-09-06T09:30:56;101731.09;;;20.81;40.54
60654;BME280;46476;53.614;10.048;2022-09-06T09:33:35;101727.53;;;20.87;40.51
60654;BME280;46476;53.614;10.048;2022-09-06T09:36:07;101722.03;;;20.87;41.09
60654;BME280;46476;53.614;10.048;2022-09-06T09:38:41;101721.06;;;20.95;40.99
60654;BME280;46476;53.614;10.048;2022-09-06T09:41:07;101726.66;;;21.02;41.01
60654;BME280;46476;53.614;10.048;2022-09-06T09:49:12;101722.50;;;21.13;41.10
60654;BME280;46476;53.614;10.048;2022-09-06T09:51:39;101722.50;;;21.13;41.06
60654;BME280;46476;53.614;10.048;2022-09-06T09:54:07;101711.63;;;21.04;40.73
60654;BME280;46476;53.614;10.048;2022-09-06T09:58:59;101720.31;;;21.08;41.02
60654;BME280;46476;53.614;10.048;2022-09-06T10:01:28;101711.03;;;21.09;40.95
60654;BME280;46476;53.614;10.048;2022-09-06T10:04:05;101703.44;;;21.11;40.75
60654;BME280;46476;53.614;10.048;2022-09-06T10:06:31;101704.47;;;21.10;40.70
60654;BME280;46476;53.614;10.048;2022-09-06T10:08:57;101703.22;;;21.13;41.01
60654;BME280;46476;53.614;10.048;2022-09-06T10:11:47;101697.09;;;21.17;40.93
60654;BME280;46476;53.614;10.048;2022-09-06T10:14:25;101698.59;;;21.20;41.05
60654;BME280;46476;53.614;10.048;2022-09-06T10:16:51;101696.09;;;21.25;40.95
60654;BME280;46476;53.614;10.048;2022-09-06T10:28:05;101670.06;;;21.27;40.69
60654;BME280;46476;53.614;10.048;2022-09-06T10:30:40;101675.56;;;21.27;40.85
60654;BME280;46476;53.614;10.048;2022-09-06T10:33:22;101678.16;;;21.29;40.89
60654;BME280;46476;53.614;10.048;2022-09-06T10:35:51;101663.50;;;21.29;41.01
60654;BME280;46476;53.614;10.048;2022-09-06T10:41:39;101662.25;;;21.31;41.09
60654;BME280;46476;53.614;10.048;2022-09-06T10:47:12;101662.91;;;21.33;40.81
60654;BME280;46476;53.614;10.048;2022-09-06T10:49:44;101666.97;;;21.37;41.67
60654;BME280;46476;53.614;10.048;2022-09-06T10:52:19;101666.56;;;21.40;41.43
60654;BME280;46476;53.614;10.048;2022-09-06T10:54:47;101660.00;;;21.41;40.95
60654;BME280;46476;53.614;10.048;2022-09-06T10:57:22;101666.56;;;21.40;41.36
60654;BME280;46476;53.614;10.048;2022-09-06T10:59:53;101666.75;;;21.39;40.92
60654;BME280;46476;53.614;10.048;2022-09-06T11:05:29;101663.75;;;21.34;40.62
60654;BME280;46476;53.614;10.048;2022-09-06T11:08:00;101664.81;;;21.33;41.34
60654;BME280;46476;53.614;10.048;2022-09-06T11:10:30;101654.44;;;21.35;40.67
60654;BME280;46476;53.614;10.048;2022-09-06T11:13:02;101669.72;;;21.37;40.35
60654;BME280;46476;53.614;10.048;2022-09-06T11:15:40;101670.13;;;21.34;40.79
60654;BME280;46476;53.614;10.048;2022-09-06T11:18:14;101668.44;;;21.33;40.27
60654;BME280;46476;53.614;10.048;2022-09-06T11:26:28;101661.13;;;21.47;40.58
60654;BME280;46476;53.614;10.048;2022-09-06T11:28:57;101661.94;;;21.48;40.44
60654;BME280;46476;53.614;10.048;2022-09-06T11:31:25;101660.69;;;21.50;40.25
60654;BME280;46476;53.614;10.048;2022-09-06T11:36:45;101667.00;;;21.44;40.10
60654;BME280;46476;53.614;10.048;2022-09-06T11:39:11;101669.16;;;21.49;40.84
60654;BME280;46476;53.614;10.048;2022-09-06T11:41:40;101662.69;;;21.56;40.87
60654;BME280;46476;53.614;10.048;2022-09-06T11:44:09;101657.81;;;21.58;40.36
60654;BME280;46476;53.614;10.048;2022-09-06T11:49:29;101666.31;;;21.64;39.61
60654;BME280;46476;53.614;10.048;2022-09-06T11:51:53;101657.53;;;21.53;39.72
60654;BME280;46476;53.614;10.048;2022-09-06T11:59:22;101652.50;;;21.57;40.28
60654;BME280;46476;53.614;10.048;2022-09-06T12:05:18;101645.94;;;21.58;40.71
60654;BME280;46476;53.614;10.048;2022-09-06T12:07:38;101654.22;;;21.58;40.42
60654;BME280;46476;53.614;10.048;2022-09-06T12:12:54;101655.03;;;21.58;40.63
60654;BME280;46476;53.614;10.048;2022-09-06T12:15:44;101655.72;;;21.61;41.07
60654;BME280;46476;53.614;10.048;2022-09-06T12:21:08;101651.03;;;21.61;41.31
60654;BME280;46476;53.614;10.048;2022-09-06T12:26:08;101642.38;;;21.64;41.97
60654;BME280;46476;53.614;10.048;2022-09-06T12:28:42;101636.44;;;21.67;42.30
60654;BME280;46476;53.614;10.048;2022-09-06T12:31:26;101626.25;;;21.68;42.20
60654;BME280;46476;53.614;10.048;2022-09-06T12:33:53;101620.97;;;21.66;42.18
60654;BME280;46476;53.614;10.048;2022-09-06T12:36:24;101618.88;;;21.68;42.26
60654;BME280;46476;53.614;10.048;2022-09-06T12:39:03;101613.75;;;21.65;42.22
60654;BME280;46476;53.614;10.048;2022-09-06T12:41:31;101616.50;;;21.65;42.28
60654;BME280;46476;53.614;10.048;2022-09-06T12:44:00;101617.56;;;21.64;42.10
60654;BME280;46476;53.614;10.048;2022-09-06T12:46:29;101608.03;;;21.67;42.33
60654;BME280;46476;53.614;10.048;2022-09-06T12:49:07;101609.72;;;21.68;41.65
60654;BME280;46476;53.614;10.048;2022-09-06T12:51:33;101604.22;;;21.68;41.83
60654;BME280;46476;53.614;10.048;2022-09-06T12:54:02;101598.09;;;21.72;41.76
60654;BME280;46476;53.614;10.048;2022-09-06T12:56:30;101594.75;;;21.77;41.69
60654;BME280;46476;53.614;10.048;2022-09-06T12:59:12;101595.16;;;21.81;41.67
60654;BME280;46476;53.614;10.048;2022-09-06T13:01:41;101590.94;;;21.85;41.61
60654;BME280;46476;53.614;10.048;2022-09-06T13:04:20;101586.94;;;21.87;41.78
60654;BME280;46476;53.614;10.048;2022-09-06T13:06:48;101581.00;;;21.90;41.89
60654;BME280;46476;53.614;10.048;2022-09-06T13:09:17;101576.75;;;21.95;41.41
60654;BME280;46476;53.614;10.048;2022-09-06T13:11:45;101577.59;;;21.95;41.30
60654;BME280;46476;53.614;10.048;2022-09-06T13:14:18;101574.66;;;21.97;41.24
60654;BME280;46476;53.614;10.048;2022-09-06T13:16:48;101572.53;;;21.99;41.14
60654;BME280;46476;53.614;10.048;2022-09-06T13:21:43;101572.31;;;22.00;41.26
60654;BME280;46476;53.614;10.048;2022-09-06T13:24:41;101571.91;;;22.03;40.96
60654;BME280;46476;53.614;10.048;2022-09-06T13:30:05;101579.13;;;22.04;40.85
60654;BME280;46476;53.614;10.048;2022-09-06T13:32:34;101584.44;;;22.06;40.83
60654;BME280;46476;53.614;10.048;2022-09-06T13:35:00;101588.25;;;22.05;40.50
60654;BME280;46476;53.614;10.048;2022-09-06T13:37:28;101581.69;;;22.06;40.60
60654;BME280;46476;53.614;10.048;2022-09-06T13:39:55;101579.97;;;22.05;40.59
60654;BME280;46476;53.614;10.048;2022-09-06T13:42:34;101590.16;;;22.04;40.44
60654;BME280;46476;53.614;10.048;2022-09-06T13:45:22;101590.34;;;22.03;40.62
60654;BME280;46476;53.614;10.048;2022-09-06T13:47:49;101599.72;;;22.02;40.72
60654;BME280;46476;53.614;10.048;2022-09-06T13:50:14;101584.84;;;22.03;40.75
60654;BME280;46476;53.614;10.048;2022-09-06T13:52:40;101593.09;;;22.03;40.99
60654;BME280;46476;53.614;10.048;2022-09-06T13:55:06;101585.50;;;22.05;40.96
60654;BME280;46476;53.614;10.048;2022-09-06T13:57:31;101586.16;;;22.07;41.06
60654;BME280;46476;53.614;10.048;2022-09-06T13:59:56;101580.63;;;22.07;41.19
60654;BME280;46476;53.614;10.048;2022-09-06T14:02:21;101572.53;;;22.05;41.14
60654;BME280;46476;53.614;10.048;2022-09-06T14:04:49;101574.03;;;22.08;41.47
60654;BME280;46476;53.614;10.048;2022-09-06T14:07:14;101574.25;;;22.13;41.11
60654;BME280;46476;53.614;10.048;2022-09-06T14:09:39;101572.97;;;22.09;40.92
60654;BME280;46476;53.614;10.048;2022-09-06T14:12:05;101569.16;;;22.10;40.92
60654;BME280;46476;53.614;10.048;2022-09-06T14:14:31;101567.47;;;22.09;41.06
60654;BME280;46476;53.614;10.048;2022-09-06T14:16:56;101567.47;;;22.09;41.01
60654;BME280;46476;53.614;10.048;2022-09-06T14:19:21;101569.59;;;22.07;40.99